Terminal Aerodrome Forecast
Issued by NWS Kansas City/Pleasant Hill, MO

Home | Current Version | Previous Version | Text Only | Print | Product List | Glossary On
Versions: 1 2 3 4 5 6 7 8 9 10 11 12 13 14 15 16 17 18 19 20 21 22 23
000
FTUS43 KEAX 261725
TAFMCI
TAF
KMCI 261725Z 2618/2718 11012KT P6SM SCT050 SCT140
     FM262300 14010KT P6SM VCTS BKN030CB
     FM270200 16012KT 4SM -TSRA BKN025CB
      TEMPO 2704/2706 VRB20G40KT 1SM +TSRA
     FM271200 12013KT P6SM VCTS BKN035CB=

USA.gov is the U.S. government's official web portal to all federal, state and local government web resources and services.